createdAt,value
2023-03-11T00:01:54.756Z,0.80
2023-03-11T00:04:21.771Z,0.80
2023-03-11T00:06:48.489Z,0.90
2023-03-11T00:09:15.324Z,0.90
2023-03-11T00:11:42.132Z,0.80
2023-03-11T00:14:09.196Z,0.80
2023-03-11T00:16:36.251Z,0.90
2023-03-11T00:19:03.187Z,0.80
2023-03-11T00:21:30.129Z,0.70
2023-03-11T00:23:57.150Z,0.80
2023-03-11T00:26:23.925Z,0.80
2023-03-11T00:28:50.720Z,0.80
2023-03-11T00:31:17.510Z,0.80
2023-03-11T00:33:44.348Z,0.80
2023-03-11T00:36:27.505Z,0.70
2023-03-11T00:41:41.049Z,0.70
2023-03-11T00:46:54.532Z,0.70
2023-03-11T00:49:21.623Z,0.70
2023-03-11T00:51:48.384Z,0.70
2023-03-11T00:54:15.218Z,0.70
2023-03-11T00:56:42.042Z,0.70
2023-03-11T00:59:08.780Z,0.70
2023-03-11T01:01:35.611Z,0.70
2023-03-11T01:04:02.440Z,0.70
2023-03-11T01:06:44.462Z,0.70
2023-03-11T01:09:12.375Z,0.70
2023-03-11T01:11:39.843Z,0.70
2023-03-11T01:14:07.641Z,0.70
2023-03-11T01:16:34.759Z,0.70
2023-03-11T01:19:01.624Z,0.70
2023-03-11T01:24:15.093Z,0.70
2023-03-11T01:29:28.503Z,0.70
2023-03-11T01:34:42.060Z,0.70
2023-03-11T01:37:08.824Z,0.60
2023-03-11T01:39:35.579Z,0.70
2023-03-11T01:42:02.465Z,0.70
2023-03-11T01:44:29.270Z,0.70
2023-03-11T01:46:55.977Z,0.80
2023-03-11T01:49:23.557Z,0.70
2023-03-11T01:54:42.023Z,0.60
2023-03-11T01:59:44.901Z,0.70
2023-03-11T02:02:19.687Z,0.70
2023-03-11T02:04:47.721Z,0.70
2023-03-11T02:07:15.115Z,0.70
2023-03-11T02:09:42.091Z,0.60
2023-03-11T02:12:11.472Z,0.70
2023-03-11T02:14:42.802Z,0.60
2023-03-11T02:20:02.037Z,0.60
2023-03-11T02:25:10.262Z,0.70
2023-03-11T02:27:41.001Z,0.60
2023-03-11T02:30:10.468Z,0.60
2023-03-11T02:32:38.006Z,0.60
2023-03-11T02:37:32.850Z,0.60
2023-03-11T02:43:15.950Z,0.60
2023-03-11T02:45:45.495Z,0.60
2023-03-11T02:48:13.761Z,0.60
2023-03-11T02:50:41.390Z,0.70
2023-03-11T02:53:08.460Z,0.70
2023-03-11T02:55:35.765Z,0.60
2023-03-11T02:58:02.562Z,0.60
2023-03-11T03:00:29.321Z,0.60
2023-03-11T03:02:56.100Z,0.60
2023-03-11T03:05:23.590Z,0.60
2023-03-11T03:07:51.734Z,0.60
2023-03-11T03:10:20.580Z,0.60
2023-03-11T03:12:47.622Z,0.60
2023-03-11T03:15:14.535Z,0.60
2023-03-11T03:17:41.607Z,0.60
2023-03-11T03:20:10.721Z,0.60
2023-03-11T03:22:38.609Z,0.60
2023-03-11T03:25:06.235Z,0.60
2023-03-11T03:27:34.230Z,0.60
2023-03-11T03:30:00.994Z,0.60
2023-03-11T03:32:27.891Z,0.50
2023-03-11T03:34:54.809Z,0.60
2023-03-11T03:37:21.573Z,0.60
2023-03-11T03:39:48.347Z,0.60
2023-03-11T03:42:15.148Z,0.70
2023-03-11T03:44:41.970Z,0.60
2023-03-11T03:47:08.730Z,0.60
2023-03-11T03:49:35.479Z,0.50
2023-03-11T03:52:02.256Z,0.50
2023-03-11T03:54:29.036Z,0.50
2023-03-11T03:56:55.791Z,0.50
2023-03-11T04:02:09.378Z,0.50
2023-03-11T04:07:22.906Z,0.40
2023-03-11T04:12:36.312Z,0.30
2023-03-11T04:15:03.182Z,0.20
2023-03-11T04:17:30.045Z,0.30
2023-03-11T04:19:56.922Z,0.30
2023-03-11T04:22:23.672Z,0.30
2023-03-11T04:24:50.440Z,0.30
2023-03-11T04:27:17.223Z,0.30
2023-03-11T04:29:44.078Z,0.30
2023-03-11T04:32:10.940Z,0.30
2023-03-11T04:34:37.816Z,0.40
2023-03-11T04:37:04.776Z,0.40
2023-03-11T04:39:31.510Z,0.30
2023-03-11T04:41:58.320Z,0.50
2023-03-11T04:44:25.207Z,0.50
2023-03-11T04:46:52.006Z,0.50
2023-03-11T04:49:18.845Z,0.60
2023-03-11T04:51:45.606Z,0.50
2023-03-11T04:54:12.373Z,0.30
2023-03-11T04:56:39.157Z,0.50
2023-03-11T04:59:05.928Z,0.50
2023-03-11T05:04:19.355Z,0.70
2023-03-11T05:09:34.632Z,0.70
2023-03-11T05:14:28.170Z,0.70
2023-03-11T05:16:54.972Z,0.70
2023-03-11T05:19:21.830Z,0.70
2023-03-11T05:21:48.604Z,0.50
2023-03-11T05:24:15.353Z,0.40
2023-03-11T05:26:42.166Z,0.50
2023-03-11T05:29:08.928Z,0.40
2023-03-11T05:31:35.757Z,0.40
2023-03-11T05:34:02.646Z,0.40
2023-03-11T05:36:29.389Z,0.40
2023-03-11T05:38:56.113Z,0.40
2023-03-11T05:41:22.954Z,0.40
2023-03-11T05:43:49.776Z,0.40
2023-03-11T05:46:16.620Z,0.30
2023-03-11T05:48:43.417Z,0.40
2023-03-11T05:51:11.468Z,0.40
2023-03-11T05:53:38.807Z,0.30
2023-03-11T05:56:06.075Z,0.30
2023-03-11T05:58:33.120Z,0.30
2023-03-11T06:00:59.844Z,0.40
2023-03-11T06:03:26.676Z,0.30
2023-03-11T06:08:40.152Z,0.30
2023-03-11T06:13:58.434Z,0.30
2023-03-11T06:19:12.898Z,0.30
2023-03-11T06:24:26.641Z,0.40
2023-03-11T06:26:53.771Z,0.50
2023-03-11T06:29:20.847Z,0.40
2023-03-11T06:31:47.771Z,0.30
2023-03-11T06:34:14.568Z,0.30
2023-03-11T06:36:41.358Z,0.30
2023-03-11T06:39:08.197Z,0.30
2023-03-11T06:41:34.950Z,0.40
2023-03-11T06:44:01.729Z,0.30
2023-03-11T06:46:28.626Z,0.30
2023-03-11T06:48:55.487Z,0.30
2023-03-11T06:51:22.616Z,0.40
2023-03-11T06:53:51.511Z,0.40
2023-03-11T06:56:20.286Z,0.50
2023-03-11T06:58:47.294Z,0.60
2023-03-11T07:01:30.478Z,0.70
2023-03-11T07:03:57.407Z,0.80
2023-03-11T07:06:26.210Z,0.70
2023-03-11T07:08:54.002Z,0.70
2023-03-11T07:11:26.208Z,0.60
2023-03-11T07:13:54.536Z,0.50
2023-03-11T07:16:26.980Z,0.50
2023-03-11T07:18:56.941Z,0.60
2023-03-11T07:21:24.325Z,0.60
2023-03-11T07:26:44.473Z,0.50
2023-03-11T07:31:58.381Z,0.60
2023-03-11T07:34:25.188Z,0.50
2023-03-11T07:36:51.959Z,0.40
2023-03-11T07:39:19.129Z,0.50
2023-03-11T07:41:46.196Z,0.40
2023-03-11T07:44:14.509Z,0.50
2023-03-11T07:46:41.767Z,0.50
2023-03-11T07:49:08.644Z,0.80
2023-03-11T07:51:37.043Z,1.00
2023-03-11T07:54:05.066Z,1.10
2023-03-11T07:59:21.050Z,2.70
2023-03-11T08:01:47.849Z,3.70
2023-03-11T08:04:15.346Z,2.80
2023-03-11T08:06:45.367Z,2.30
2023-03-11T08:11:59.759Z,3.70
2023-03-11T08:17:13.191Z,2.70
2023-03-11T08:19:39.997Z,3.00
2023-03-11T08:22:06.729Z,2.50
2023-03-11T08:24:33.674Z,2.10
2023-03-11T08:27:00.530Z,2.00
2023-03-11T08:32:14.085Z,2.30
2023-03-11T08:34:40.900Z,2.40
2023-03-11T08:37:07.880Z,1.90
2023-03-11T08:39:34.663Z,1.70
2023-03-11T08:42:02.203Z,2.10
2023-03-11T08:44:29.377Z,2.80
2023-03-11T08:46:56.191Z,5.40
2023-03-11T08:49:23.041Z,4.50
2023-03-11T08:51:49.888Z,6.00
2023-03-11T08:54:16.622Z,4.50
2023-03-11T08:56:43.424Z,4.50
2023-03-11T08:59:10.245Z,4.30
2023-03-11T09:01:36.980Z,4.10
2023-03-11T09:04:03.990Z,4.00
2023-03-11T09:06:30.795Z,6.20
2023-03-11T09:11:44.493Z,7.30
2023-03-11T09:16:58.012Z,6.30
2023-03-11T09:19:25.243Z,6.60
2023-03-11T09:21:51.988Z,6.40
2023-03-11T09:24:18.779Z,4.80
2023-03-11T09:26:45.499Z,4.70
2023-03-11T09:29:12.263Z,4.50
2023-03-11T09:31:39.099Z,3.80
2023-03-11T09:34:06.206Z,3.80
2023-03-11T09:36:33.636Z,3.90
2023-03-11T09:39:01.205Z,3.90
2023-03-11T09:45:00.016Z,3.70
2023-03-11T09:47:45.891Z,3.30
2023-03-11T09:50:40.120Z,3.00
2023-03-11T09:53:12.918Z,2.90
2023-03-11T09:55:57.433Z,3.00
2023-03-11T09:58:48.456Z,2.80
2023-03-11T10:01:24.482Z,2.70
2023-03-11T10:06:42.026Z,2.60
2023-03-11T10:09:39.298Z,2.70
2023-03-11T10:12:34.803Z,2.50
2023-03-11T10:15:48.270Z,2.60
2023-03-11T10:27:52.179Z,4.50
2023-03-11T10:30:22.146Z,5.30
2023-03-11T10:33:01.046Z,5.40
2023-03-11T10:35:40.420Z,5.50
2023-03-11T10:38:21.714Z,6.00
2023-03-11T10:40:51.480Z,5.20
2023-03-11T10:43:35.070Z,4.80
2023-03-11T10:46:06.998Z,4.70
2023-03-11T10:48:34.352Z,5.10
2023-03-11T10:51:11.486Z,6.00
2023-03-11T10:53:47.194Z,6.70
2023-03-11T10:56:40.710Z,7.40
2023-03-11T10:59:53.738Z,8.30
2023-03-11T11:02:23.545Z,8.10
2023-03-11T11:05:07.476Z,9.00
2023-03-11T11:07:38.874Z,9.80
2023-03-11T11:10:19.738Z,7.90
2023-03-11T11:13:07.868Z,7.90
2023-03-11T11:15:36.063Z,7.50
2023-03-11T11:18:07.080Z,8.40
2023-03-11T11:20:34.450Z,7.50
2023-03-11T11:23:03.810Z,8.80
2023-03-11T11:25:33.333Z,9.10
2023-03-11T11:28:15.797Z,8.70
2023-03-11T11:30:57.923Z,9.10
2023-03-11T11:33:32.104Z,10.00
2023-03-11T11:36:04.937Z,9.20
2023-03-11T11:38:32.943Z,9.50
2023-03-11T11:41:03.211Z,9.70
2023-03-11T11:43:44.314Z,9.50
2023-03-11T11:46:22.669Z,9.60
2023-03-11T11:49:07.232Z,9.70
2023-03-11T11:51:35.936Z,10.20
2023-03-11T11:54:23.934Z,10.90
2023-03-11T11:56:50.755Z,11.00
2023-03-11T11:59:19.592Z,11.30
2023-03-11T12:02:10.791Z,10.70
2023-03-11T12:04:51.764Z,11.20
2023-03-11T12:07:49.021Z,11.40
2023-03-11T12:10:54.832Z,12.40
2023-03-11T12:13:48.207Z,13.00
2023-03-11T12:16:39.140Z,12.40
2023-03-11T12:19:11.821Z,12.20
2023-03-11T12:21:55.695Z,12.40
2023-03-11T12:24:28.518Z,11.60
2023-03-11T12:27:00.103Z,11.60
2023-03-11T12:29:32.490Z,11.60
2023-03-11T12:32:01.451Z,11.00
2023-03-11T12:34:29.480Z,11.80
2023-03-11T12:36:59.388Z,11.40
2023-03-11T12:39:35.613Z,11.60
2023-03-11T12:42:11.741Z,12.50
2023-03-11T12:47:27.460Z,12.10
2023-03-11T12:52:54.832Z,11.00
2023-03-11T12:55:30.137Z,11.10
2023-03-11T13:01:51.159Z,10.20
2023-03-11T13:04:24.494Z,10.80
2023-03-11T13:07:12.877Z,10.80
2023-03-11T13:09:40.299Z,11.30
2023-03-11T13:12:37.822Z,10.90
2023-03-11T13:15:22.348Z,10.00
2023-03-11T13:18:13.380Z,10.70
2023-03-11T13:20:40.070Z,10.10
2023-03-11T13:23:12.679Z,10.50
2023-03-11T13:25:44.420Z,10.30
2023-03-11T13:28:32.326Z,10.90
2023-03-11T13:31:36.686Z,11.10
2023-03-11T13:37:13.644Z,10.40
2023-03-11T13:40:05.292Z,10.00
2023-03-11T13:42:49.488Z,10.30
2023-03-11T13:45:31.134Z,10.20
2023-03-11T13:48:18.609Z,10.70
2023-03-11T13:50:49.325Z,10.50
2023-03-11T13:53:22.363Z,10.40
2023-03-11T13:55:49.970Z,10.80
2023-03-11T13:58:21.659Z,11.50
2023-03-11T14:01:00.499Z,9.80
2023-03-11T14:03:31.891Z,9.70
2023-03-11T14:06:01.105Z,9.40
2023-03-11T14:08:29.206Z,8.80
2023-03-11T14:11:17.284Z,9.30
2023-03-11T14:13:45.616Z,8.90
2023-03-11T14:16:16.603Z,9.50
2023-03-11T14:19:03.659Z,9.70
2023-03-11T14:21:30.724Z,9.20
2023-03-11T14:23:57.955Z,8.80
2023-03-11T14:26:31.851Z,8.60
2023-03-11T14:29:02.179Z,8.10
2023-03-11T14:31:40.236Z,8.10
2023-03-11T14:40:36.951Z,9.60
2023-03-11T14:43:08.596Z,10.20
2023-03-11T14:45:37.563Z,9.90
2023-03-11T14:48:16.346Z,9.40
2023-03-11T14:50:44.900Z,9.50
2023-03-11T14:53:44.615Z,9.40
2023-03-11T14:56:21.397Z,9.20
2023-03-11T14:59:15.928Z,9.30
2023-03-11T15:01:44.528Z,8.60
2023-03-11T15:04:28.899Z,8.50
2023-03-11T15:06:56.181Z,8.00
2023-03-11T15:09:24.842Z,7.60
2023-03-11T15:11:52.931Z,7.20
2023-03-11T15:14:21.329Z,7.00
2023-03-11T15:16:48.564Z,6.90
2023-03-11T15:19:31.339Z,6.80
2023-03-11T15:22:06.153Z,6.60
2023-03-11T15:24:33.898Z,6.30
2023-03-11T15:27:04.983Z,6.50
2023-03-11T15:29:33.296Z,6.40
2023-03-11T15:32:00.875Z,6.20
2023-03-11T15:34:31.166Z,6.00
2023-03-11T15:37:19.365Z,6.00
2023-03-11T15:39:48.478Z,6.20
2023-03-11T15:42:20.476Z,6.30
2023-03-11T15:48:01.727Z,5.80
2023-03-11T15:50:40.060Z,5.90
2023-03-11T15:55:37.366Z,5.70
2023-03-11T15:58:08.499Z,5.10
2023-03-11T16:00:36.962Z,5.00
2023-03-11T16:03:04.452Z,5.10
2023-03-11T16:05:31.359Z,5.00
2023-03-11T16:07:58.168Z,5.10
2023-03-11T16:10:25.227Z,4.90
2023-03-11T16:12:52.000Z,4.80
2023-03-11T16:15:30.891Z,4.60
2023-03-11T16:18:00.504Z,4.40
2023-03-11T16:23:22.796Z,4.30
2023-03-11T16:25:52.134Z,4.30
2023-03-11T16:28:18.921Z,4.10
2023-03-11T16:30:45.685Z,4.10
2023-03-11T16:33:12.483Z,3.90
2023-03-11T16:35:39.407Z,4.00
2023-03-11T16:38:08.089Z,4.00
2023-03-11T16:40:34.925Z,3.90
2023-03-11T16:43:04.194Z,3.90
2023-03-11T16:45:31.557Z,3.80
2023-03-11T16:47:58.493Z,3.70
2023-03-11T16:50:25.334Z,3.50
2023-03-11T16:52:53.439Z,3.50
2023-03-11T16:55:20.383Z,3.50
2023-03-11T16:57:47.285Z,3.40
2023-03-11T17:00:14.940Z,3.30
2023-03-11T17:02:42.056Z,3.20
2023-03-11T17:05:09.244Z,3.20
2023-03-11T17:07:39.162Z,3.00
2023-03-11T17:10:07.403Z,2.90
2023-03-11T17:12:34.318Z,2.90
2023-03-11T17:15:01.188Z,2.90
2023-03-11T17:17:27.989Z,2.80
2023-03-11T17:19:54.771Z,2.80
2023-03-11T17:22:21.573Z,2.90
2023-03-11T17:24:48.334Z,2.70
2023-03-11T17:27:15.150Z,2.40
2023-03-11T17:32:29.630Z,2.10
2023-03-11T17:37:23.349Z,1.90
2023-03-11T17:39:50.317Z,1.90
2023-03-11T17:45:04.384Z,1.80
2023-03-11T17:50:19.473Z,1.80
2023-03-11T17:52:47.010Z,1.70
2023-03-11T17:55:13.852Z,1.70
2023-03-11T17:57:45.354Z,1.60
2023-03-11T18:02:40.132Z,1.60
2023-03-11T18:05:07.560Z,1.50
2023-03-11T18:10:23.361Z,1.50
2023-03-11T18:15:36.842Z,1.30
2023-03-11T18:18:03.646Z,1.40
2023-03-11T18:20:30.404Z,1.40
2023-03-11T18:22:57.168Z,1.30
2023-03-11T18:25:23.957Z,1.30
2023-03-11T18:27:51.537Z,1.20
2023-03-11T18:30:18.657Z,1.20
2023-03-11T18:32:45.464Z,1.20
2023-03-11T18:35:12.370Z,1.20
2023-03-11T18:37:39.115Z,1.30
2023-03-11T18:40:06.747Z,1.20
2023-03-11T18:42:33.763Z,1.30
2023-03-11T18:45:00.551Z,1.20
2023-03-11T18:47:27.376Z,1.30
2023-03-11T18:49:54.240Z,1.30
2023-03-11T18:52:21.342Z,1.30
2023-03-11T18:54:48.123Z,1.30
2023-03-11T18:57:14.939Z,1.30
2023-03-11T18:59:41.714Z,1.20
2023-03-11T19:02:10.883Z,1.30
2023-03-11T19:04:37.701Z,1.20
2023-03-11T19:07:04.520Z,1.20
2023-03-11T19:09:31.351Z,1.20
2023-03-11T19:14:44.813Z,1.20
2023-03-11T19:19:59.236Z,1.20
2023-03-11T19:25:12.712Z,1.20
2023-03-11T19:27:40.510Z,1.20
2023-03-11T19:30:07.846Z,1.30
2023-03-11T19:32:34.682Z,1.30
2023-03-11T19:35:01.510Z,1.30
2023-03-11T19:40:17.686Z,1.30
2023-03-11T19:45:31.151Z,1.30
2023-03-11T19:47:58.089Z,1.30
2023-03-11T19:50:24.860Z,1.40
2023-03-11T19:52:51.682Z,1.40
2023-03-11T19:55:18.608Z,1.40
2023-03-11T19:57:45.462Z,1.30
2023-03-11T20:00:12.957Z,1.40
2023-03-11T20:02:39.784Z,1.30
2023-03-11T20:05:07.132Z,1.30
2023-03-11T20:07:34.008Z,1.20
2023-03-11T20:10:01.100Z,1.30
2023-03-11T20:12:27.904Z,1.20
2023-03-11T20:14:54.750Z,1.20
2023-03-11T20:17:21.588Z,1.20
2023-03-11T20:22:35.135Z,1.20
2023-03-11T20:25:02.490Z,1.20
2023-03-11T20:30:16.522Z,1.10
2023-03-11T20:35:30.026Z,1.10
2023-03-11T20:37:56.796Z,1.10
2023-03-11T20:40:23.598Z,1.00
2023-03-11T20:42:50.498Z,1.10
2023-03-11T20:45:18.344Z,1.00
2023-03-11T20:47:45.193Z,1.00
2023-03-11T20:50:13.030Z,1.10
2023-03-11T20:52:40.105Z,1.10
2023-03-11T20:55:07.719Z,1.10
2023-03-11T20:57:34.591Z,1.10
2023-03-11T21:00:01.571Z,1.20
2023-03-11T21:05:15.115Z,1.30
2023-03-11T21:07:42.056Z,1.30
2023-03-11T21:10:11.564Z,1.30
2023-03-11T21:12:38.342Z,1.40
2023-03-11T21:15:06.147Z,1.30
2023-03-11T21:17:36.633Z,1.40
2023-03-11T21:20:05.445Z,1.30
2023-03-11T21:22:33.200Z,1.20
2023-03-11T21:25:00.109Z,1.20
2023-03-11T21:27:27.246Z,1.10
2023-03-11T21:29:57.921Z,1.10
2023-03-11T21:32:27.238Z,1.10
2023-03-11T21:35:01.000Z,1.10
2023-03-11T21:37:28.589Z,1.00
2023-03-11T21:39:55.701Z,1.00
2023-03-11T21:42:22.588Z,1.10
2023-03-11T21:44:49.441Z,1.10
2023-03-11T21:47:16.411Z,1.10
2023-03-11T21:49:43.292Z,1.10
2023-03-11T21:52:10.146Z,1.10
2023-03-11T21:57:24.286Z,1.10
2023-03-11T22:02:37.707Z,1.20
2023-03-11T22:05:04.757Z,1.20
2023-03-11T22:07:31.562Z,1.10
2023-03-11T22:09:58.598Z,1.20
2023-03-11T22:12:25.523Z,1.20
2023-03-11T22:14:52.446Z,1.20
2023-03-11T22:17:19.305Z,1.20
2023-03-11T22:19:46.251Z,1.20
2023-03-11T22:22:13.195Z,1.20
2023-03-11T22:24:40.010Z,1.20
2023-03-11T22:27:06.848Z,1.20
2023-03-11T22:29:33.700Z,1.20
2023-03-11T22:32:00.568Z,1.20
2023-03-11T22:34:27.369Z,1.10
2023-03-11T22:36:54.116Z,1.10
2023-03-11T22:39:20.881Z,1.10
2023-03-11T22:41:47.642Z,1.20
2023-03-11T22:44:14.419Z,1.10
2023-03-11T22:49:27.976Z,1.00
2023-03-11T22:54:41.509Z,0.90
2023-03-11T22:59:54.916Z,0.80
2023-03-11T23:02:21.672Z,0.80
2023-03-11T23:04:48.454Z,0.80
2023-03-11T23:07:15.233Z,0.80
2023-03-11T23:09:42.039Z,0.80
2023-03-11T23:12:08.932Z,0.80
2023-03-11T23:14:44.700Z,0.90
2023-03-11T23:17:12.352Z,0.90
2023-03-11T23:19:39.220Z,0.90
2023-03-11T23:22:06.089Z,0.90
2023-03-11T23:24:32.845Z,0.90
2023-03-11T23:26:59.622Z,0.90
2023-03-11T23:29:26.462Z,0.90
2023-03-11T23:31:53.235Z,1.00
2023-03-11T23:34:19.980Z,1.00
2023-03-11T23:36:46.784Z,1.00
2023-03-11T23:39:13.594Z,1.00
2023-03-11T23:41:40.392Z,1.00
2023-03-11T23:44:07.183Z,1.10
2023-03-11T23:46:34.002Z,1.10
2023-03-11T23:51:47.572Z,1.10
2023-03-11T23:57:01.101Z,1.10
